Terminal Aerodrome Forecast
Issued by NWS Melbourne, FL

Current Version | Previous Version | Text Only | Print | Product List | Glossary On
Versions: 1 2 3 4 5 6 7 8 9 10 11 12 13 14 15 16 17 18
000
FTUS42 KMLB 011917 AAA
TAFDAB
TAF AMD
KDAB 011917Z 0119/0218 04008KT P6SM VCSH SCT008 BKN020 OVC030
      TEMPO 0119/0121 BKN008
     FM020000 09003KT P6SM SCT020 BKN080
     FM020300 00000KT 5SM BR BKN015
      TEMPO 0210/0213 1SM BR OVC003
     FM021400 00000KT P6SM BKN012
     FM021600 06005KT P6SM BKN025=

USA.gov is the U.S. government's official web portal to all federal, state and local government web resources and services.